sensor_id;sensor_type;location;lat;lon;timestamp;temperature;humidity
41481;DHT22;27217;51.220;5.308;2024-02-21T00:02:17;9.80;99.90
41481;DHT22;27217;51.220;5.308;2024-02-21T00:04:43;9.60;99.90
41481;DHT22;27217;51.220;5.308;2024-02-21T00:07:08;9.60;99.90
41481;DHT22;27217;51.220;5.308;2024-02-21T00:09:34;9.40;99.90
41481;DHT22;27217;51.220;5.308;2024-02-21T00:12:00;9.50;99.90
41481;DHT22;27217;51.220;5.308;2024-02-21T00:14:26;9.60;99.90
41481;DHT22;27217;51.220;5.308;2024-02-21T00:16:51;9.50;99.90
41481;DHT22;27217;51.220;5.308;2024-02-21T00:19:17;9.50;99.90
41481;DHT22;27217;51.220;5.308;2024-02-21T00:21:43;9.50;99.90
41481;DHT22;27217;51.220;5.308;2024-02-21T00:24:08;9.40;99.90
41481;DHT22;27217;51.220;5.308;2024-02-21T00:26:34;9.60;99.90
41481;DHT22;27217;51.220;5.308;2024-02-21T00:28:59;9.60;99.90
41481;DHT22;27217;51.220;5.308;2024-02-21T00:31:25;9.20;99.90
41481;DHT22;27217;51.220;5.308;2024-02-21T00:33:50;9.50;99.90
41481;DHT22;27217;51.220;5.308;2024-02-21T00:36:16;9.50;99.90
41481;DHT22;27217;51.220;5.308;2024-02-21T00:38:41;9.60;99.90
41481;DHT22;27217;51.220;5.308;2024-02-21T00:41:10;9.60;99.90
41481;DHT22;27217;51.220;5.308;2024-02-21T00:43:35;9.50;99.90
41481;DHT22;27217;51.220;5.308;2024-02-21T00:46:01;9.50;99.90
41481;DHT22;27217;51.220;5.308;2024-02-21T00:48:27;9.50;99.90
41481;DHT22;27217;51.220;5.308;2024-02-21T00:50:52;9.40;99.90
41481;DHT22;27217;51.220;5.308;2024-02-21T00:53:18;9.40;99.90
41481;DHT22;27217;51.220;5.308;2024-02-21T00:55:43;9.40;99.90
41481;DHT22;27217;51.220;5.308;2024-02-21T00:58:09;9.60;99.90
41481;DHT22;27217;51.220;5.308;2024-02-21T01:00:35;9.70;99.90
41481;DHT22;27217;51.220;5.308;2024-02-21T01:03:01;9.40;99.90
41481;DHT22;27217;51.220;5.308;2024-02-21T01:05:27;9.40;99.90
41481;DHT22;27217;51.220;5.308;2024-02-21T01:07:54;9.30;99.90
41481;DHT22;27217;51.220;5.308;2024-02-21T01:10:20;9.60;99.90
41481;DHT22;27217;51.220;5.308;2024-02-21T01:12:45;9.70;99.90
41481;DHT22;27217;51.220;5.308;2024-02-21T01:15:11;9.70;99.90
41481;DHT22;27217;51.220;5.308;2024-02-21T01:17:37;9.70;99.90
41481;DHT22;27217;51.220;5.308;2024-02-21T01:20:02;9.50;99.90
41481;DHT22;27217;51.220;5.308;2024-02-21T01:22:32;9.60;99.90
41481;DHT22;27217;51.220;5.308;2024-02-21T01:24:57;9.70;99.90
41481;DHT22;27217;51.220;5.308;2024-02-21T01:27:23;9.80;99.90
41481;DHT22;27217;51.220;5.308;2024-02-21T01:29:48;9.60;99.90
41481;DHT22;27217;51.220;5.308;2024-02-21T01:32:15;9.70;99.90
41481;DHT22;27217;51.220;5.308;2024-02-21T01:34:41;9.70;99.90
41481;DHT22;27217;51.220;5.308;2024-02-21T01:37:06;9.30;99.90
41481;DHT22;27217;51.220;5.308;2024-02-21T01:39:33;9.20;99.90
41481;DHT22;27217;51.220;5.308;2024-02-21T01:41:58;9.10;99.90
41481;DHT22;27217;51.220;5.308;2024-02-21T01:44:24;9.10;99.90
41481;DHT22;27217;51.220;5.308;2024-02-21T01:46:50;9.20;99.90
41481;DHT22;27217;51.220;5.308;2024-02-21T01:49:17;9.00;99.90
41481;DHT22;27217;51.220;5.308;2024-02-21T01:51:43;9.00;99.90
41481;DHT22;27217;51.220;5.308;2024-02-21T01:54:09;8.90;99.90
41481;DHT22;27217;51.220;5.308;2024-02-21T01:56:35;9.00;99.90
41481;DHT22;27217;51.220;5.308;2024-02-21T01:59:00;9.10;99.90
41481;DHT22;27217;51.220;5.308;2024-02-21T02:01:26;9.10;99.90
41481;DHT22;27217;51.220;5.308;2024-02-21T02:03:52;9.00;99.90
41481;DHT22;27217;51.220;5.308;2024-02-21T02:06:18;9.00;99.90
41481;DHT22;27217;51.220;5.308;2024-02-21T02:08:43;9.10;99.90
41481;DHT22;27217;51.220;5.308;2024-02-21T02:11:09;9.10;99.90
41481;DHT22;27217;51.220;5.308;2024-02-21T02:13:35;9.20;99.90
41481;DHT22;27217;51.220;5.308;2024-02-21T02:16:00;9.40;99.90
41481;DHT22;27217;51.220;5.308;2024-02-21T02:18:26;9.30;99.90
41481;DHT22;27217;51.220;5.308;2024-02-21T02:20:52;9.50;99.90
41481;DHT22;27217;51.220;5.308;2024-02-21T02:25:43;9.20;99.90
41481;DHT22;27217;51.220;5.308;2024-02-21T02:28:13;9.10;99.90
41481;DHT22;27217;51.220;5.308;2024-02-21T02:30:39;9.40;99.90
41481;DHT22;27217;51.220;5.308;2024-02-21T02:33:05;9.40;99.90
41481;DHT22;27217;51.220;5.308;2024-02-21T02:35:31;9.30;99.90
41481;DHT22;27217;51.220;5.308;2024-02-21T02:37:56;9.30;99.90
41481;DHT22;27217;51.220;5.308;2024-02-21T02:40:22;9.30;99.90
41481;DHT22;27217;51.220;5.308;2024-02-21T02:42:48;9.10;99.90
41481;DHT22;27217;51.220;5.308;2024-02-21T02:45:17;9.30;99.90
41481;DHT22;27217;51.220;5.308;2024-02-21T02:47:46;9.50;99.90
41481;DHT22;27217;51.220;5.308;2024-02-21T02:50:12;9.20;99.90
41481;DHT22;27217;51.220;5.308;2024-02-21T02:52:38;9.20;99.90
41481;DHT22;27217;51.220;5.308;2024-02-21T02:55:04;9.40;99.90
41481;DHT22;27217;51.220;5.308;2024-02-21T02:57:30;9.30;99.90
41481;DHT22;27217;51.220;5.308;2024-02-21T02:59:56;9.20;99.90
41481;DHT22;27217;51.220;5.308;2024-02-21T03:02:21;9.30;99.90
41481;DHT22;27217;51.220;5.308;2024-02-21T03:04:47;9.40;99.90
41481;DHT22;27217;51.220;5.308;2024-02-21T03:07:13;9.40;99.90
41481;DHT22;27217;51.220;5.308;2024-02-21T03:09:39;9.60;99.90
41481;DHT22;27217;51.220;5.308;2024-02-21T03:12:08;9.30;99.90
41481;DHT22;27217;51.220;5.308;2024-02-21T03:14:34;9.50;99.90
41481;DHT22;27217;51.220;5.308;2024-02-21T03:17:00;9.30;99.90
41481;DHT22;27217;51.220;5.308;2024-02-21T03:19:25;9.40;99.90
41481;DHT22;27217;51.220;5.308;2024-02-21T03:21:51;9.50;99.90
41481;DHT22;27217;51.220;5.308;2024-02-21T03:24:17;9.40;99.90
41481;DHT22;27217;51.220;5.308;2024-02-21T03:26:42;9.50;99.90
41481;DHT22;27217;51.220;5.308;2024-02-21T03:29:08;9.20;99.90
41481;DHT22;27217;51.220;5.308;2024-02-21T03:31:37;9.00;99.90
41481;DHT22;27217;51.220;5.308;2024-02-21T03:34:02;9.20;99.90
41481;DHT22;27217;51.220;5.308;2024-02-21T03:36:28;9.50;99.90
41481;DHT22;27217;51.220;5.308;2024-02-21T03:38:54;9.30;99.90
41481;DHT22;27217;51.220;5.308;2024-02-21T03:41:20;9.30;99.90
41481;DHT22;27217;51.220;5.308;2024-02-21T03:43:45;9.00;99.90
41481;DHT22;27217;51.220;5.308;2024-02-21T03:46:11;8.80;99.90
41481;DHT22;27217;51.220;5.308;2024-02-21T03:48:36;8.80;99.90
41481;DHT22;27217;51.220;5.308;2024-02-21T03:51:02;8.80;99.90
41481;DHT22;27217;51.220;5.308;2024-02-21T03:53:28;8.90;99.90
41481;DHT22;27217;51.220;5.308;2024-02-21T03:55:54;9.00;99.90
41481;DHT22;27217;51.220;5.308;2024-02-21T03:58:20;8.80;99.90
41481;DHT22;27217;51.220;5.308;2024-02-21T04:00:45;8.50;99.90
41481;DHT22;27217;51.220;5.308;2024-02-21T04:03:11;8.70;99.90
41481;DHT22;27217;51.220;5.308;2024-02-21T04:05:36;8.60;99.90
41481;DHT22;27217;51.220;5.308;2024-02-21T04:08:05;8.60;99.90
41481;DHT22;27217;51.220;5.308;2024-02-21T04:10:31;8.60;99.90
41481;DHT22;27217;51.220;5.308;2024-02-21T04:12:56;8.70;99.90
41481;DHT22;27217;51.220;5.308;2024-02-21T04:15:22;8.50;99.90
41481;DHT22;27217;51.220;5.308;2024-02-21T04:17:48;8.40;99.90
41481;DHT22;27217;51.220;5.308;2024-02-21T04:20:16;8.70;99.90
41481;DHT22;27217;51.220;5.308;2024-02-21T04:22:45;8.80;99.90
41481;DHT22;27217;51.220;5.308;2024-02-21T04:25:11;8.60;99.90
41481;DHT22;27217;51.220;5.308;2024-02-21T04:27:39;9.50;99.90
41481;DHT22;27217;51.220;5.308;2024-02-21T04:30:06;9.00;99.90
41481;DHT22;27217;51.220;5.308;2024-02-21T04:32:32;9.00;99.90
41481;DHT22;27217;51.220;5.308;2024-02-21T04:34:57;9.20;99.90
41481;DHT22;27217;51.220;5.308;2024-02-21T04:37:23;9.30;99.90
41481;DHT22;27217;51.220;5.308;2024-02-21T04:39:49;9.10;99.90
41481;DHT22;27217;51.220;5.308;2024-02-21T04:42:15;9.10;99.90
41481;DHT22;27217;51.220;5.308;2024-02-21T04:44:41;9.20;99.90
41481;DHT22;27217;51.220;5.308;2024-02-21T04:47:06;9.30;99.90
41481;DHT22;27217;51.220;5.308;2024-02-21T04:49:32;9.20;99.90
41481;DHT22;27217;51.220;5.308;2024-02-21T04:51:58;9.10;99.90
41481;DHT22;27217;51.220;5.308;2024-02-21T04:54:23;9.00;99.90
41481;DHT22;27217;51.220;5.308;2024-02-21T04:56:49;9.10;99.90
41481;DHT22;27217;51.220;5.308;2024-02-21T04:59:14;9.00;99.90
41481;DHT22;27217;51.220;5.308;2024-02-21T05:01:40;8.90;99.90
41481;DHT22;27217;51.220;5.308;2024-02-21T05:04:05;8.70;99.90
41481;DHT22;27217;51.220;5.308;2024-02-21T05:06:31;8.70;99.90
41481;DHT22;27217;51.220;5.308;2024-02-21T05:08:57;8.90;99.90
41481;DHT22;27217;51.220;5.308;2024-02-21T05:11:23;9.00;99.90
41481;DHT22;27217;51.220;5.308;2024-02-21T05:13:49;9.00;99.90
41481;DHT22;27217;51.220;5.308;2024-02-21T05:16:15;9.10;99.90
41481;DHT22;27217;51.220;5.308;2024-02-21T05:18:41;9.00;99.90
41481;DHT22;27217;51.220;5.308;2024-02-21T05:21:08;9.10;99.90
41481;DHT22;27217;51.220;5.308;2024-02-21T05:23:33;9.30;99.90
41481;DHT22;27217;51.220;5.308;2024-02-21T05:25:59;9.50;99.90
41481;DHT22;27217;51.220;5.308;2024-02-21T05:28:25;9.10;99.90
41481;DHT22;27217;51.220;5.308;2024-02-21T05:30:50;9.00;99.90
41481;DHT22;27217;51.220;5.308;2024-02-21T05:33:16;8.90;99.90
41481;DHT22;27217;51.220;5.308;2024-02-21T05:35:46;9.00;99.90
41481;DHT22;27217;51.220;5.308;2024-02-21T05:38:13;8.90;99.90
41481;DHT22;27217;51.220;5.308;2024-02-21T05:40:38;9.20;99.90
41481;DHT22;27217;51.220;5.308;2024-02-21T05:43:04;9.50;99.90
41481;DHT22;27217;51.220;5.308;2024-02-21T05:45:30;9.30;99.90
41481;DHT22;27217;51.220;5.308;2024-02-21T05:47:55;9.00;99.90
41481;DHT22;27217;51.220;5.308;2024-02-21T05:50:22;9.00;99.90
41481;DHT22;27217;51.220;5.308;2024-02-21T05:52:52;9.00;99.90
41481;DHT22;27217;51.220;5.308;2024-02-21T05:55:18;8.90;99.90
41481;DHT22;27217;51.220;5.308;2024-02-21T05:57:45;8.70;99.90
41481;DHT22;27217;51.220;5.308;2024-02-21T06:00:11;8.80;99.90
41481;DHT22;27217;51.220;5.308;2024-02-21T06:02:37;8.90;99.90
41481;DHT22;27217;51.220;5.308;2024-02-21T06:05:02;9.10;99.90
41481;DHT22;27217;51.220;5.308;2024-02-21T06:07:28;9.20;99.90
41481;DHT22;27217;51.220;5.308;2024-02-21T06:09:53;9.20;99.90
41481;DHT22;27217;51.220;5.308;2024-02-21T06:12:19;9.10;99.90
41481;DHT22;27217;51.220;5.308;2024-02-21T06:14:44;9.10;99.90
41481;DHT22;27217;51.220;5.308;2024-02-21T06:17:10;9.10;99.90
41481;DHT22;27217;51.220;5.308;2024-02-21T06:19:39;9.10;99.90
41481;DHT22;27217;51.220;5.308;2024-02-21T06:22:05;9.20;99.90
41481;DHT22;27217;51.220;5.308;2024-02-21T06:24:33;8.90;99.90
41481;DHT22;27217;51.220;5.308;2024-02-21T06:26:59;8.70;99.90
41481;DHT22;27217;51.220;5.308;2024-02-21T06:29:25;8.70;99.90
41481;DHT22;27217;51.220;5.308;2024-02-21T06:31:50;8.80;99.90
41481;DHT22;27217;51.220;5.308;2024-02-21T06:34:16;8.70;99.90
41481;DHT22;27217;51.220;5.308;2024-02-21T06:36:42;8.70;99.90
41481;DHT22;27217;51.220;5.308;2024-02-21T06:39:07;8.80;99.90
41481;DHT22;27217;51.220;5.308;2024-02-21T06:41:33;8.80;99.90
41481;DHT22;27217;51.220;5.308;2024-02-21T06:43:59;8.80;99.90
41481;DHT22;27217;51.220;5.308;2024-02-21T06:46:25;9.10;99.90
41481;DHT22;27217;51.220;5.308;2024-02-21T06:48:52;8.70;99.90
41481;DHT22;27217;51.220;5.308;2024-02-21T06:51:18;8.70;99.90
41481;DHT22;27217;51.220;5.308;2024-02-21T06:53:43;8.80;99.90
41481;DHT22;27217;51.220;5.308;2024-02-21T06:56:09;8.60;99.90
41481;DHT22;27217;51.220;5.308;2024-02-21T06:58:35;8.70;99.90
41481;DHT22;27217;51.220;5.308;2024-02-21T07:01:03;8.70;99.90
41481;DHT22;27217;51.220;5.308;2024-02-21T07:03:29;8.70;99.90
41481;DHT22;27217;51.220;5.308;2024-02-21T07:05:54;8.70;99.90
41481;DHT22;27217;51.220;5.308;2024-02-21T07:08:20;8.70;99.90
41481;DHT22;27217;51.220;5.308;2024-02-21T07:10:47;8.70;99.90
41481;DHT22;27217;51.220;5.308;2024-02-21T07:13:12;8.80;99.90
41481;DHT22;27217;51.220;5.308;2024-02-21T07:15:38;8.70;99.90
41481;DHT22;27217;51.220;5.308;2024-02-21T07:18:04;8.70;99.90
41481;DHT22;27217;51.220;5.308;2024-02-21T07:20:30;8.70;99.90
41481;DHT22;27217;51.220;5.308;2024-02-21T07:22:55;8.80;99.90
41481;DHT22;27217;51.220;5.308;2024-02-21T07:25:21;8.80;99.90
41481;DHT22;27217;51.220;5.308;2024-02-21T07:27:46;8.90;99.90
41481;DHT22;27217;51.220;5.308;2024-02-21T07:30:12;9.00;99.90
41481;DHT22;27217;51.220;5.308;2024-02-21T07:32:38;9.10;99.90
41481;DHT22;27217;51.220;5.308;2024-02-21T07:35:04;8.90;99.90
41481;DHT22;27217;51.220;5.308;2024-02-21T07:37:30;8.90;99.90
41481;DHT22;27217;51.220;5.308;2024-02-21T07:39:56;9.00;99.90
41481;DHT22;27217;51.220;5.308;2024-02-21T07:42:21;8.80;99.90
41481;DHT22;27217;51.220;5.308;2024-02-21T07:44:47;8.80;99.90
41481;DHT22;27217;51.220;5.308;2024-02-21T07:47:13;8.90;99.90
41481;DHT22;27217;51.220;5.308;2024-02-21T07:49:43;9.00;99.90
41481;DHT22;27217;51.220;5.308;2024-02-21T07:52:09;9.00;99.90
41481;DHT22;27217;51.220;5.308;2024-02-21T07:54:35;8.90;99.90
41481;DHT22;27217;51.220;5.308;2024-02-21T07:57:01;9.00;99.90
41481;DHT22;27217;51.220;5.308;2024-02-21T07:59:26;9.10;99.90
41481;DHT22;27217;51.220;5.308;2024-02-21T08:01:55;9.10;99.90
41481;DHT22;27217;51.220;5.308;2024-02-21T08:04:21;9.00;99.90
41481;DHT22;27217;51.220;5.308;2024-02-21T08:06:50;8.90;99.90
41481;DHT22;27217;51.220;5.308;2024-02-21T08:09:16;8.80;99.90
41481;DHT22;27217;51.220;5.308;2024-02-21T08:11:41;8.70;99.90
41481;DHT22;27217;51.220;5.308;2024-02-21T08:14:07;8.70;99.90
41481;DHT22;27217;51.220;5.308;2024-02-21T08:16:33;8.80;99.90
41481;DHT22;27217;51.220;5.308;2024-02-21T08:18:59;8.50;99.90
41481;DHT22;27217;51.220;5.308;2024-02-21T08:21:25;8.30;99.90
41481;DHT22;27217;51.220;5.308;2024-02-21T08:23:51;8.60;99.90
41481;DHT22;27217;51.220;5.308;2024-02-21T08:26:18;8.50;99.90
41481;DHT22;27217;51.220;5.308;2024-02-21T08:28:43;8.40;99.90
41481;DHT22;27217;51.220;5.308;2024-02-21T08:31:09;8.40;99.90
41481;DHT22;27217;51.220;5.308;2024-02-21T08:33:35;8.40;99.90
41481;DHT22;27217;51.220;5.308;2024-02-21T08:36:00;8.40;99.90
41481;DHT22;27217;51.220;5.308;2024-02-21T08:38:26;8.50;99.90
41481;DHT22;27217;51.220;5.308;2024-02-21T08:40:51;8.50;99.90
41481;DHT22;27217;51.220;5.308;2024-02-21T08:43:17;8.50;99.90
41481;DHT22;27217;51.220;5.308;2024-02-21T08:45:46;8.60;99.90
41481;DHT22;27217;51.220;5.308;2024-02-21T08:48:11;8.70;99.90
41481;DHT22;27217;51.220;5.308;2024-02-21T08:50:37;8.90;99.90
41481;DHT22;27217;51.220;5.308;2024-02-21T08:53:03;8.70;99.90
41481;DHT22;27217;51.220;5.308;2024-02-21T08:55:29;9.20;99.90
41481;DHT22;27217;51.220;5.308;2024-02-21T08:57:54;9.10;99.90
41481;DHT22;27217;51.220;5.308;2024-02-21T09:00:20;9.00;99.90
41481;DHT22;27217;51.220;5.308;2024-02-21T09:02:52;9.10;99.90
41481;DHT22;27217;51.220;5.308;2024-02-21T09:05:17;9.10;99.90
41481;DHT22;27217;51.220;5.308;2024-02-21T09:07:43;9.20;99.90
41481;DHT22;27217;51.220;5.308;2024-02-21T09:10:13;9.20;99.90
41481;DHT22;27217;51.220;5.308;2024-02-21T09:12:41;9.30;99.90
41481;DHT22;27217;51.220;5.308;2024-02-21T09:15:07;9.10;99.90
41481;DHT22;27217;51.220;5.308;2024-02-21T09:17:33;8.60;99.90
41481;DHT22;27217;51.220;5.308;2024-02-21T09:19:58;9.30;99.90
41481;DHT22;27217;51.220;5.308;2024-02-21T09:22:31;9.30;99.90
41481;DHT22;27217;51.220;5.308;2024-02-21T09:25:00;9.20;99.90
41481;DHT22;27217;51.220;5.308;2024-02-21T09:27:25;9.40;99.90
41481;DHT22;27217;51.220;5.308;2024-02-21T09:29:51;9.50;99.90
41481;DHT22;27217;51.220;5.308;2024-02-21T09:32:18;9.50;99.90
41481;DHT22;27217;51.220;5.308;2024-02-21T09:34:44;9.70;99.90
41481;DHT22;27217;51.220;5.308;2024-02-21T09:37:10;9.80;99.90
41481;DHT22;27217;51.220;5.308;2024-02-21T09:39:36;9.60;99.90
41481;DHT22;27217;51.220;5.308;2024-02-21T09:42:11;9.70;99.90
41481;DHT22;27217;51.220;5.308;2024-02-21T09:44:37;9.60;99.90
41481;DHT22;27217;51.220;5.308;2024-02-21T09:47:05;9.90;99.90
41481;DHT22;27217;51.220;5.308;2024-02-21T09:49:32;9.80;99.90
41481;DHT22;27217;51.220;5.308;2024-02-21T09:52:01;9.90;99.90
41481;DHT22;27217;51.220;5.308;2024-02-21T09:54:30;9.90;99.90
41481;DHT22;27217;51.220;5.308;2024-02-21T09:57:02;9.80;99.90
41481;DHT22;27217;51.220;5.308;2024-02-21T09:59:28;9.80;99.90
41481;DHT22;27217;51.220;5.308;2024-02-21T10:01:55;9.90;99.90
41481;DHT22;27217;51.220;5.308;2024-02-21T10:04:21;9.90;99.90
41481;DHT22;27217;51.220;5.308;2024-02-21T10:06:47;9.90;99.90
41481;DHT22;27217;51.220;5.308;2024-02-21T10:09:25;10.10;99.90
41481;DHT22;27217;51.220;5.308;2024-02-21T10:11:53;10.20;99.90
41481;DHT22;27217;51.220;5.308;2024-02-21T10:14:19;10.20;99.90
41481;DHT22;27217;51.220;5.308;2024-02-21T10:16:48;10.20;99.90
41481;DHT22;27217;51.220;5.308;2024-02-21T10:19:17;10.30;99.90
41481;DHT22;27217;51.220;5.308;2024-02-21T10:21:43;11.00;99.90
41481;DHT22;27217;51.220;5.308;2024-02-21T10:24:13;10.50;99.90
41481;DHT22;27217;51.220;5.308;2024-02-21T10:26:38;10.40;99.90
41481;DHT22;27217;51.220;5.308;2024-02-21T10:29:04;10.50;99.90
41481;DHT22;27217;51.220;5.308;2024-02-21T10:31:30;10.50;99.90
41481;DHT22;27217;51.220;5.308;2024-02-21T10:36:21;10.70;99.90
41481;DHT22;27217;51.220;5.308;2024-02-21T10:38:47;10.60;99.90
41481;DHT22;27217;51.220;5.308;2024-02-21T10:41:13;9.70;99.90
41481;DHT22;27217;51.220;5.308;2024-02-21T10:43:40;10.50;99.90
41481;DHT22;27217;51.220;5.308;2024-02-21T10:46:06;10.90;99.90
41481;DHT22;27217;51.220;5.308;2024-02-21T10:48:37;10.50;99.90
41481;DHT22;27217;51.220;5.308;2024-02-21T10:51:07;10.70;99.90
41481;DHT22;27217;51.220;5.308;2024-02-21T10:56:29;10.50;99.90
41481;DHT22;27217;51.220;5.308;2024-02-21T10:58:56;10.50;99.90
41481;DHT22;27217;51.220;5.308;2024-02-21T11:01:22;10.60;99.90
41481;DHT22;27217;51.220;5.308;2024-02-21T11:03:49;10.60;99.90
41481;DHT22;27217;51.220;5.308;2024-02-21T11:06:18;10.70;99.90
41481;DHT22;27217;51.220;5.308;2024-02-21T11:08:44;11.30;99.90
41481;DHT22;27217;51.220;5.308;2024-02-21T11:11:12;10.60;99.90
41481;DHT22;27217;51.220;5.308;2024-02-21T11:13:42;10.90;99.90
41481;DHT22;27217;51.220;5.308;2024-02-21T11:16:11;10.70;99.90
41481;DHT22;27217;51.220;5.308;2024-02-21T11:18:37;10.80;99.90
41481;DHT22;27217;51.220;5.308;2024-02-21T11:21:03;10.90;99.90
41481;DHT22;27217;51.220;5.308;2024-02-21T11:23:32;11.10;99.90
41481;DHT22;27217;51.220;5.308;2024-02-21T11:26:09;11.50;99.90
41481;DHT22;27217;51.220;5.308;2024-02-21T11:28:35;11.90;99.90
41481;DHT22;27217;51.220;5.308;2024-02-21T11:31:13;11.70;99.90
41481;DHT22;27217;51.220;5.308;2024-02-21T11:33:42;11.80;99.90
41481;DHT22;27217;51.220;5.308;2024-02-21T11:36:21;11.70;99.90
41481;DHT22;27217;51.220;5.308;2024-02-21T11:38:47;11.40;99.90
41481;DHT22;27217;51.220;5.308;2024-02-21T11:41:13;11.10;99.90
41481;DHT22;27217;51.220;5.308;2024-02-21T11:43:39;11.10;99.90
41481;DHT22;27217;51.220;5.308;2024-02-21T11:46:04;11.20;99.90
41481;DHT22;27217;51.220;5.308;2024-02-21T11:48:31;11.50;99.90
41481;DHT22;27217;51.220;5.308;2024-02-21T11:50:57;11.90;99.90
41481;DHT22;27217;51.220;5.308;2024-02-21T11:53:22;12.10;99.90
41481;DHT22;27217;51.220;5.308;2024-02-21T11:55:48;12.00;99.90
41481;DHT22;27217;51.220;5.308;2024-02-21T11:58:15;12.10;99.90
41481;DHT22;27217;51.220;5.308;2024-02-21T12:00:40;12.30;99.90
41481;DHT22;27217;51.220;5.308;2024-02-21T12:03:06;12.60;99.90
41481;DHT22;27217;51.220;5.308;2024-02-21T12:05:32;13.00;99.90
41481;DHT22;27217;51.220;5.308;2024-02-21T12:07:57;13.10;99.90
41481;DHT22;27217;51.220;5.308;2024-02-21T12:10:26;12.60;99.90
41481;DHT22;27217;51.220;5.308;2024-02-21T12:12:52;12.40;99.90
41481;DHT22;27217;51.220;5.308;2024-02-21T12:15:20;12.50;99.90
41481;DHT22;27217;51.220;5.308;2024-02-21T12:17:45;12.80;99.90
41481;DHT22;27217;51.220;5.308;2024-02-21T12:20:11;12.50;99.90
41481;DHT22;27217;51.220;5.308;2024-02-21T12:22:43;12.40;99.90
41481;DHT22;27217;51.220;5.308;2024-02-21T12:25:18;12.20;99.90
41481;DHT22;27217;51.220;5.308;2024-02-21T12:27:44;12.00;99.90
41481;DHT22;27217;51.220;5.308;2024-02-21T12:30:10;11.80;99.90
41481;DHT22;27217;51.220;5.308;2024-02-21T12:32:36;11.70;99.90
41481;DHT22;27217;51.220;5.308;2024-02-21T12:35:02;11.70;99.90
41481;DHT22;27217;51.220;5.308;2024-02-21T12:37:27;11.80;99.90
41481;DHT22;27217;51.220;5.308;2024-02-21T12:39:54;11.70;99.90
41481;DHT22;27217;51.220;5.308;2024-02-21T12:42:19;11.40;99.90
41481;DHT22;27217;51.220;5.308;2024-02-21T12:44:45;11.20;99.90
41481;DHT22;27217;51.220;5.308;2024-02-21T12:47:11;11.40;99.90
41481;DHT22;27217;51.220;5.308;2024-02-21T12:49:37;11.40;99.90
41481;DHT22;27217;51.220;5.308;2024-02-21T12:52:03;11.20;99.90
41481;DHT22;27217;51.220;5.308;2024-02-21T12:54:28;11.40;99.90
41481;DHT22;27217;51.220;5.308;2024-02-21T12:56:55;11.50;99.90
41481;DHT22;27217;51.220;5.308;2024-02-21T12:59:21;11.50;99.90
41481;DHT22;27217;51.220;5.308;2024-02-21T13:01:46;11.30;99.90
41481;DHT22;27217;51.220;5.308;2024-02-21T13:04:12;11.60;99.90
41481;DHT22;27217;51.220;5.308;2024-02-21T13:06:38;11.50;99.90
41481;DHT22;27217;51.220;5.308;2024-02-21T13:09:03;11.50;99.90
41481;DHT22;27217;51.220;5.308;2024-02-21T13:11:34;11.50;99.90
41481;DHT22;27217;51.220;5.308;2024-02-21T13:13:59;11.50;99.90
41481;DHT22;27217;51.220;5.308;2024-02-21T13:16:25;11.30;99.90
41481;DHT22;27217;51.220;5.308;2024-02-21T13:18:51;11.30;99.90
41481;DHT22;27217;51.220;5.308;2024-02-21T13:21:17;11.40;99.90
41481;DHT22;27217;51.220;5.308;2024-02-21T13:23:42;11.30;99.90
41481;DHT22;27217;51.220;5.308;2024-02-21T13:26:09;11.40;99.90
41481;DHT22;27217;51.220;5.308;2024-02-21T13:28:35;11.40;99.90
41481;DHT22;27217;51.220;5.308;2024-02-21T13:31:00;11.30;99.90
41481;DHT22;27217;51.220;5.308;2024-02-21T13:33:26;11.30;99.90
41481;DHT22;27217;51.220;5.308;2024-02-21T13:35:53;11.40;99.90
41481;DHT22;27217;51.220;5.308;2024-02-21T13:38:19;11.30;99.90
41481;DHT22;27217;51.220;5.308;2024-02-21T13:40:45;11.20;99.90
41481;DHT22;27217;51.220;5.308;2024-02-21T13:43:10;11.10;99.90
41481;DHT22;27217;51.220;5.308;2024-02-21T13:45:36;11.00;99.90
41481;DHT22;27217;51.220;5.308;2024-02-21T13:48:02;11.00;99.90
41481;DHT22;27217;51.220;5.308;2024-02-21T13:50:30;11.10;99.90
41481;DHT22;27217;51.220;5.308;2024-02-21T13:52:56;11.20;99.90
41481;DHT22;27217;51.220;5.308;2024-02-21T13:55:22;11.10;99.90
41481;DHT22;27217;51.220;5.308;2024-02-21T13:57:48;11.60;99.90
41481;DHT22;27217;51.220;5.308;2024-02-21T14:00:14;11.10;99.90
41481;DHT22;27217;51.220;5.308;2024-02-21T14:02:40;11.10;99.90
41481;DHT22;27217;51.220;5.308;2024-02-21T14:05:08;10.60;99.90
41481;DHT22;27217;51.220;5.308;2024-02-21T14:07:34;11.40;99.90
41481;DHT22;27217;51.220;5.308;2024-02-21T14:09:59;11.40;99.90
41481;DHT22;27217;51.220;5.308;2024-02-21T14:12:25;11.30;99.90
41481;DHT22;27217;51.220;5.308;2024-02-21T14:14:50;11.10;99.90
41481;DHT22;27217;51.220;5.308;2024-02-21T14:17:17;11.20;99.90
41481;DHT22;27217;51.220;5.308;2024-02-21T14:19:43;11.20;99.90
41481;DHT22;27217;51.220;5.308;2024-02-21T14:22:08;11.20;99.90
41481;DHT22;27217;51.220;5.308;2024-02-21T14:24:36;11.20;99.90
41481;DHT22;27217;51.220;5.308;2024-02-21T14:27:02;11.00;99.90
41481;DHT22;27217;51.220;5.308;2024-02-21T14:29:28;10.80;99.90
41481;DHT22;27217;51.220;5.308;2024-02-21T14:31:54;10.70;99.90
41481;DHT22;27217;51.220;5.308;2024-02-21T14:34:20;10.80;99.90
41481;DHT22;27217;51.220;5.308;2024-02-21T14:36:45;10.90;99.90
41481;DHT22;27217;51.220;5.308;2024-02-21T14:39:11;10.80;99.90
41481;DHT22;27217;51.220;5.308;2024-02-21T14:41:36;10.70;99.90
41481;DHT22;27217;51.220;5.308;2024-02-21T14:44:02;10.50;99.90
41481;DHT22;27217;51.220;5.308;2024-02-21T14:46:28;10.30;99.90
41481;DHT22;27217;51.220;5.308;2024-02-21T14:48:57;10.10;99.90
41481;DHT22;27217;51.220;5.308;2024-02-21T14:51:22;10.10;99.90
41481;DHT22;27217;51.220;5.308;2024-02-21T14:53:48;10.10;99.90
41481;DHT22;27217;51.220;5.308;2024-02-21T14:56:17;10.00;99.90
41481;DHT22;27217;51.220;5.308;2024-02-21T14:58:43;9.80;99.90
41481;DHT22;27217;51.220;5.308;2024-02-21T15:01:09;9.80;99.90
41481;DHT22;27217;51.220;5.308;2024-02-21T15:03:35;9.60;99.90
41481;DHT22;27217;51.220;5.308;2024-02-21T15:06:01;9.60;99.90
41481;DHT22;27217;51.220;5.308;2024-02-21T15:08:27;9.70;99.90
41481;DHT22;27217;51.220;5.308;2024-02-21T15:10:53;9.60;99.90
41481;DHT22;27217;51.220;5.308;2024-02-21T15:13:18;9.50;99.90
41481;DHT22;27217;51.220;5.308;2024-02-21T15:15:44;9.40;99.90
41481;DHT22;27217;51.220;5.308;2024-02-21T15:18:13;9.60;99.90
41481;DHT22;27217;51.220;5.308;2024-02-21T15:20:40;9.50;99.90
41481;DHT22;27217;51.220;5.308;2024-02-21T15:23:05;9.40;99.90
41481;DHT22;27217;51.220;5.308;2024-02-21T15:25:31;9.40;99.90
41481;DHT22;27217;51.220;5.308;2024-02-21T15:27:56;9.40;99.90
41481;DHT22;27217;51.220;5.308;2024-02-21T15:30:22;9.30;99.90
41481;DHT22;27217;51.220;5.308;2024-02-21T15:32:48;9.40;99.90
41481;DHT22;27217;51.220;5.308;2024-02-21T15:35:13;9.50;99.90
41481;DHT22;27217;51.220;5.308;2024-02-21T15:37:39;9.30;99.90
41481;DHT22;27217;51.220;5.308;2024-02-21T15:40:05;9.30;99.90
41481;DHT22;27217;51.220;5.308;2024-02-21T15:42:33;9.20;99.90
41481;DHT22;27217;51.220;5.308;2024-02-21T15:44:59;9.10;99.90